Tasman Crusader — A8NQ7 — position and weather

sailwx.info

Track history (hours):
 
Tides and Currents Weather Stations Pressure Air Temp Water Temp Dewpoint Dewpoint Depression Visibility Wind Speed Wind Dir Waves Ship Positions

Tasman Crusader

Last reported at 2015-Jan-19 20:33 UTC. Time now 2015-Jan-30 12:28 UTC.
Position N 27°54' W 115°46'.
Warning: this ship's position is 10 days out of date.

Length 186 m; draft 9 m.

Type: Cargo ship. MMSI: 636091434.

Date/timePositionNaut miles runAvg speedWind from/ knotsBaromVisibWave heightAir tempDewpointWater temp
2015-Jan-19 20:33N 27°54' W 115°46'14611.3
2015-Jan-19 07:33N 30°12' W 116°44'3610.8
2015-Jan-19 04:11N 30°46' W 116°58'4411.1
2015-Jan-19 00:11N 31°28' W 117°15'711.4
2015-Jan-18 23:33N 31°35' W 117°18'1110.9
2015-Jan-18 22:33N 31°45' W 117°22'1311.1
2015-Jan-18 21:23N 31°57' W 117°27'911.0
2015-Jan-18 20:33N 32°06' W 117°31'1110.9
2015-Jan-18 19:33N 32°16' W 117°35'1111.1
2015-Jan-18 18:33N 32°26' W 117°40'1110.9
2015-Jan-18 17:33N 32°37' W 117°44'1110.8
2015-Jan-18 16:33N 32°47' W 117°49'1111.1
2015-Jan-18 15:33N 32°57' W 117°54'1110.8
2015-Jan-18 14:33N 33°07' W 117°59'1110.8
2015-Jan-18 13:33N 33°17' W 118°05'1110.7
2015-Jan-18 12:33N 33°27' W 118°09'1010.5
2015-Jan-18 11:33N 33°37' W 118°13'9 8.6
2015-Jan-18 10:33N 33°45' W 118°13'1 1.0
2015-Jan-18 09:31N 33°46' W 118°14'0 0.0
2015-Jan-18 08:31N 33°46' W 118°14'0 0.0
2015-Jan-18 07:31N 33°46' W 118°14'0 0.0
2015-Jan-18 06:31N 33°46' W 118°14'0 0.0
2015-Jan-18 05:31N 33°46' W 118°14'0 0.0
2015-Jan-18 04:31N 33°46' W 118°14'0 0.0
2015-Jan-18 03:28N 33°46' W 118°14'0 0.0
2015-Jan-18 02:22N 33°46' W 118°14'0 0.0
2015-Jan-18 01:31N 33°46' W 118°14'0 0.0
2015-Jan-18 00:31N 33°46' W 118°14'0 0.0
2015-Jan-17 23:28N 33°46' W 118°14'0 0.0
2015-Jan-17 22:31N 33°46' W 118°14'0 0.0
2015-Jan-17 21:31N 33°46' W 118°14'0 0.0
2015-Jan-17 20:31N 33°46' W 118°14'0 0.0
2015-Jan-17 19:31N 33°46' W 118°14'0 0.0
2015-Jan-17 18:31N 33°46' W 118°14'0 0.0
2015-Jan-17 17:31N 33°46' W 118°14'0 0.0
2015-Jan-17 16:28N 33°46' W 118°14'0 0.0
2015-Jan-17 15:28N 33°46' W 118°14'0 0.0
2015-Jan-17 14:31N 33°46' W 118°14'0 0.0
2015-Jan-17 13:31N 33°46' W 118°14'1 1.1
2015-Jan-17 12:33N 33°45' W 118°13'4 4.3
2015-Jan-17 11:32N 33°43' W 118°09'0 0.1
2015-Jan-17 10:32N 33°43' W 118°09'0 0.1
2015-Jan-17 09:32N 33°43' W 118°09'0 0.1
2015-Jan-17 08:32N 33°43' W 118°09'0 0.1
2015-Jan-17 07:32N 33°43' W 118°09'0 0.1
2015-Jan-17 06:32N 33°43' W 118°09'0 0.1
2015-Jan-17 05:32N 33°43' W 118°09'0 0.0
2015-Jan-17 04:32N 33°43' W 118°09'0 0.0
2015-Jan-17 03:32N 33°43' W 118°09'0 0.1
2015-Jan-17 02:32N 33°43' W 118°09'0 0.0
2015-Jan-17 01:32N 33°43' W 118°09'0 0.1
2015-Jan-17 00:33N 33°43' W 118°09'7 7.1
2015-Jan-16 23:33N 33°37' W 118°14'8 7.6
2015-Jan-16 22:33N 33°37' W 118°23'7 7.4
2015-Jan-16 21:33N 33°40' W 118°31'8 7.5
2015-Jan-16 20:33N 33°44' W 118°38'7 7.3
2015-Jan-16 19:33N 33°48' W 118°46'7 7.0
2015-Jan-16 18:33N 33°52' W 118°53'7 6.9
2015-Jan-16 17:33N 33°55' W 119°01'7 7.0
2015-Jan-16 16:33N 33°58' W 119°08'55 1.2
2015-Jan-14 17:33N 33°34' W 118°09'1010.1
2015-Jan-14 16:33N 33°24' W 118°04'1111.2
2015-Jan-14 15:33N 33°13' W 118°00'1212.0
2015-Jan-14 14:33N 33°02' W 117°55'1212.5
2015-Jan-14 13:33N 32°51' W 117°50'1212.2
2015-Jan-14 12:33N 32°39' W 117°45'1212.1
2015-Jan-14 11:33N 32°27' W 117°41'1212.1
2015-Jan-14 10:33N 32°16' W 117°36'1212.1
2015-Jan-14 09:32N 32°04' W 117°31'1212.3
2015-Jan-14 08:33N 31°53' W 117°26'1212.4
2015-Jan-14 07:33N 31°41' W 117°21'1312.1
2015-Jan-14 06:31N 31°30' W 117°16'  
Track history (hours):
 
Tides and Currents Weather Stations Pressure Air Temp Water Temp Dewpoint Dewpoint Depression Visibility Wind Speed Wind Dir Waves Ship Positions

Tasman Crusader

Last reported at 2015-Jan-19 20:33 UTC. Time now 2015-Jan-30 12:28 UTC.
Position N 27°54' W 115°46'.
Warning: this ship's position is 10 days out of date.

Length 186 m; draft 9 m.

Type: Cargo ship. MMSI: 636091434.

Date/timePositionNaut miles runAvg speedWind from/ knotsBaromVisibWave heightAir tempDewpointWater temp
2015-Jan-19 20:33N 27°54' W 115°46'14611.3
2015-Jan-19 07:33N 30°12' W 116°44'3610.8
2015-Jan-19 04:11N 30°46' W 116°58'4411.1
2015-Jan-19 00:11N 31°28' W 117°15'711.4
2015-Jan-18 23:33N 31°35' W 117°18'1110.9
2015-Jan-18 22:33N 31°45' W 117°22'1311.1
2015-Jan-18 21:23N 31°57' W 117°27'911.0
2015-Jan-18 20:33N 32°06' W 117°31'1110.9
2015-Jan-18 19:33N 32°16' W 117°35'1111.1
2015-Jan-18 18:33N 32°26' W 117°40'1110.9
2015-Jan-18 17:33N 32°37' W 117°44'1110.8
2015-Jan-18 16:33N 32°47' W 117°49'1111.1
2015-Jan-18 15:33N 32°57' W 117°54'1110.8
2015-Jan-18 14:33N 33°07' W 117°59'1110.8
2015-Jan-18 13:33N 33°17' W 118°05'1110.7
2015-Jan-18 12:33N 33°27' W 118°09'1010.5
2015-Jan-18 11:33N 33°37' W 118°13'9 8.6
2015-Jan-18 10:33N 33°45' W 118°13'1 1.0
2015-Jan-18 09:31N 33°46' W 118°14'0 0.0
2015-Jan-18 08:31N 33°46' W 118°14'0 0.0
2015-Jan-18 07:31N 33°46' W 118°14'0 0.0
2015-Jan-18 06:31N 33°46' W 118°14'0 0.0
2015-Jan-18 05:31N 33°46' W 118°14'0 0.0
2015-Jan-18 04:31N 33°46' W 118°14'0 0.0
2015-Jan-18 03:28N 33°46' W 118°14'0 0.0
2015-Jan-18 02:22N 33°46' W 118°14'0 0.0
2015-Jan-18 01:31N 33°46' W 118°14'0 0.0
2015-Jan-18 00:31N 33°46' W 118°14'0 0.0
2015-Jan-17 23:28N 33°46' W 118°14'0 0.0
2015-Jan-17 22:31N 33°46' W 118°14'0 0.0
2015-Jan-17 21:31N 33°46' W 118°14'0 0.0
2015-Jan-17 20:31N 33°46' W 118°14'0 0.0
2015-Jan-17 19:31N 33°46' W 118°14'0 0.0
2015-Jan-17 18:31N 33°46' W 118°14'0 0.0
2015-Jan-17 17:31N 33°46' W 118°14'0 0.0
2015-Jan-17 16:28N 33°46' W 118°14'0 0.0
2015-Jan-17 15:28N 33°46' W 118°14'0 0.0
2015-Jan-17 14:31N 33°46' W 118°14'0 0.0
2015-Jan-17 13:31N 33°46' W 118°14'1 1.1
2015-Jan-17 12:33N 33°45' W 118°13'4 4.3
2015-Jan-17 11:32N 33°43' W 118°09'0 0.1
2015-Jan-17 10:32N 33°43' W 118°09'0 0.1
2015-Jan-17 09:32N 33°43' W 118°09'0 0.1
2015-Jan-17 08:32N 33°43' W 118°09'0 0.1
2015-Jan-17 07:32N 33°43' W 118°09'0 0.1
2015-Jan-17 06:32N 33°43' W 118°09'0 0.1
2015-Jan-17 05:32N 33°43' W 118°09'0 0.0
2015-Jan-17 04:32N 33°43' W 118°09'0 0.0
2015-Jan-17 03:32N 33°43' W 118°09'0 0.1
2015-Jan-17 02:32N 33°43' W 118°09'0 0.0
2015-Jan-17 01:32N 33°43' W 118°09'0 0.1
2015-Jan-17 00:33N 33°43' W 118°09'7 7.1
2015-Jan-16 23:33N 33°37' W 118°14'8 7.6
2015-Jan-16 22:33N 33°37' W 118°23'7 7.4
2015-Jan-16 21:33N 33°40' W 118°31'8 7.5
2015-Jan-16 20:33N 33°44' W 118°38'7 7.3
2015-Jan-16 19:33N 33°48' W 118°46'7 7.0
2015-Jan-16 18:33N 33°52' W 118°53'7 6.9
2015-Jan-16 17:33N 33°55' W 119°01'7 7.0
2015-Jan-16 16:33N 33°58' W 119°08'55 1.2
2015-Jan-14 17:33N 33°34' W 118°09'1010.1
2015-Jan-14 16:33N 33°24' W 118°04'1111.2
2015-Jan-14 15:33N 33°13' W 118°00'1212.0
2015-Jan-14 14:33N 33°02' W 117°55'1212.5
2015-Jan-14 13:33N 32°51' W 117°50'1212.2
2015-Jan-14 12:33N 32°39' W 117°45'1212.1
2015-Jan-14 11:33N 32°27' W 117°41'1212.1
2015-Jan-14 10:33N 32°16' W 117°36'1212.1
2015-Jan-14 09:32N 32°04' W 117°31'1212.3
2015-Jan-14 08:33N 31°53' W 117°26'1212.4
2015-Jan-14 07:33N 31°41' W 117°21'1312.1
2015-Jan-14 06:31N 31°30' W 117°16'  

Dump ship's entire track history